createdAt,value
2022-10-22T00:02:21.769Z,17.73
2022-10-22T00:04:49.855Z,17.65
2022-10-22T00:07:22.253Z,18.77
2022-10-22T00:09:49.037Z,18.73
2022-10-22T00:12:15.980Z,17.58
2022-10-22T00:14:43.222Z,18.70
2022-10-22T00:17:11.466Z,18.23
2022-10-22T00:19:39.420Z,19.90
2022-10-22T00:22:06.810Z,17.38
2022-10-22T00:24:34.889Z,19.05
2022-10-22T00:27:02.088Z,18.70
2022-10-22T00:29:29.301Z,17.73
2022-10-22T00:34:28.597Z,16.70
2022-10-22T00:36:55.300Z,16.98
2022-10-22T00:39:24.872Z,15.63
2022-10-22T00:41:53.672Z,15.93
2022-10-22T00:44:57.728Z,16.40
2022-10-22T00:47:25.640Z,15.40
2022-10-22T00:49:54.020Z,16.25
2022-10-22T00:52:21.927Z,16.00
2022-10-22T00:54:49.136Z,15.07
2022-10-22T00:57:17.850Z,16.05
2022-10-22T00:59:44.705Z,15.48
2022-10-22T01:02:11.597Z,15.00
2022-10-22T01:04:38.444Z,15.80
2022-10-22T01:07:05.210Z,15.13
2022-10-22T01:09:43.084Z,14.77
2022-10-22T01:12:24.528Z,14.77
2022-10-22T01:15:03.209Z,15.45
2022-10-22T01:17:58.432Z,15.63
2022-10-22T01:20:51.400Z,14.27
2022-10-22T01:23:40.141Z,13.35
2022-10-22T01:29:11.539Z,16.17
2022-10-22T01:31:46.739Z,15.47
2022-10-22T01:34:17.019Z,14.30
2022-10-22T01:36:45.747Z,15.00
2022-10-22T01:39:15.334Z,14.68
2022-10-22T01:41:45.444Z,14.38
2022-10-22T01:44:27.093Z,14.63
2022-10-22T01:47:17.405Z,15.45
2022-10-22T01:49:49.791Z,16.27
2022-10-22T01:52:38.188Z,14.30
2022-10-22T01:55:23.649Z,15.45
2022-10-22T01:58:09.725Z,15.33
2022-10-22T02:00:40.295Z,16.05
2022-10-22T02:03:34.248Z,16.33
2022-10-22T02:06:06.012Z,14.35
2022-10-22T02:08:35.800Z,15.85
2022-10-22T02:11:03.920Z,15.87
2022-10-22T02:13:36.825Z,16.27
2022-10-22T02:16:06.809Z,14.75
2022-10-22T02:18:39.450Z,15.27
2022-10-22T02:23:35.840Z,15.20
2022-10-22T02:26:14.535Z,14.90
2022-10-22T02:28:57.123Z,14.55
2022-10-22T02:31:28.805Z,15.20
2022-10-22T02:34:00.289Z,13.40
2022-10-22T02:36:27.320Z,13.93
2022-10-22T02:38:54.977Z,14.23
2022-10-22T02:41:21.765Z,15.15
2022-10-22T02:43:55.193Z,14.13
2022-10-22T02:46:22.241Z,14.57
2022-10-22T02:48:49.304Z,14.77
2022-10-22T02:51:16.154Z,15.43
2022-10-22T02:53:42.937Z,15.98
2022-10-22T02:56:10.479Z,15.98
2022-10-22T02:58:37.223Z,16.25
2022-10-22T03:01:04.266Z,15.43
2022-10-22T03:03:31.042Z,16.00
2022-10-22T03:05:57.968Z,15.10
2022-10-22T03:08:24.745Z,15.65
2022-10-22T03:10:51.423Z,15.15
2022-10-22T03:13:18.212Z,15.60
2022-10-22T03:15:44.900Z,15.13
2022-10-22T03:18:11.720Z,15.48
2022-10-22T03:20:38.488Z,15.50
2022-10-22T03:23:05.657Z,15.57
2022-10-22T03:25:34.622Z,15.27
2022-10-22T03:28:08.321Z,15.40
2022-10-22T03:30:35.363Z,15.32
2022-10-22T03:33:02.295Z,15.73
2022-10-22T03:35:29.031Z,14.65
2022-10-22T03:37:55.856Z,15.93
2022-10-22T03:40:23.073Z,15.07
2022-10-22T03:42:49.830Z,14.48
2022-10-22T03:45:16.617Z,14.82
2022-10-22T03:47:43.591Z,15.30
2022-10-22T03:50:10.700Z,14.17
2022-10-22T03:52:39.082Z,14.77
2022-10-22T03:55:07.507Z,14.98
2022-10-22T03:57:34.539Z,14.13
2022-10-22T04:00:01.272Z,15.20
2022-10-22T04:02:28.056Z,14.10
2022-10-22T04:04:54.761Z,15.00
2022-10-22T04:07:21.487Z,14.55
2022-10-22T04:09:48.263Z,14.18
2022-10-22T04:12:14.992Z,15.98
2022-10-22T04:14:41.779Z,14.90
2022-10-22T04:17:08.501Z,15.65
2022-10-22T04:19:35.852Z,15.60
2022-10-22T04:22:02.556Z,15.98
2022-10-22T04:24:31.547Z,17.15
2022-10-22T04:26:58.365Z,15.70
2022-10-22T04:29:26.401Z,16.42
2022-10-22T04:31:53.204Z,16.95
2022-10-22T04:34:20.225Z,15.23
2022-10-22T04:36:46.990Z,15.32
2022-10-22T04:39:14.695Z,16.33
2022-10-22T04:41:41.381Z,16.50
2022-10-22T04:44:11.146Z,16.38
2022-10-22T04:46:42.807Z,15.95
2022-10-22T04:49:09.732Z,15.73
2022-10-22T04:51:36.717Z,15.70
2022-10-22T04:54:03.664Z,16.20
2022-10-22T04:56:32.026Z,16.77
2022-10-22T04:59:04.906Z,16.58
2022-10-22T05:01:41.663Z,15.77
2022-10-22T05:04:16.908Z,16.50
2022-10-22T05:06:44.044Z,16.08
2022-10-22T05:09:16.787Z,16.95
2022-10-22T05:11:51.342Z,15.52
2022-10-22T05:14:23.983Z,16.05
2022-10-22T05:16:51.632Z,17.03
2022-10-22T05:19:24.089Z,16.33
2022-10-22T05:21:53.016Z,16.70
2022-10-22T05:24:19.820Z,17.15
2022-10-22T05:26:49.752Z,16.50
2022-10-22T05:29:16.763Z,17.00
2022-10-22T05:31:43.504Z,17.50
2022-10-22T05:34:10.628Z,16.17
2022-10-22T05:36:37.636Z,17.80
2022-10-22T05:39:05.357Z,16.70
2022-10-22T05:41:33.476Z,17.30
2022-10-22T05:44:00.671Z,16.30
2022-10-22T05:46:29.756Z,17.10
2022-10-22T05:49:02.323Z,17.98
2022-10-22T05:51:31.636Z,18.95
2022-10-22T05:54:02.427Z,20.40
2022-10-22T05:56:32.047Z,20.02
2022-10-22T05:58:59.091Z,19.48
2022-10-22T06:01:28.475Z,16.40
2022-10-22T06:04:00.935Z,34.97
2022-10-22T06:06:35.577Z,21.17
2022-10-22T06:09:16.618Z,18.13
2022-10-22T06:11:43.668Z,19.77
2022-10-22T06:14:11.156Z,18.33
2022-10-22T06:16:38.115Z,18.27
2022-10-22T06:19:05.439Z,18.03
2022-10-22T06:21:32.692Z,17.17
2022-10-22T06:24:00.901Z,17.58
2022-10-22T06:26:28.092Z,18.15
2022-10-22T06:28:56.141Z,17.20
2022-10-22T06:31:24.164Z,17.00
2022-10-22T06:33:50.961Z,17.40
2022-10-22T06:36:20.570Z,19.10
2022-10-22T06:38:47.596Z,17.15
2022-10-22T06:41:16.660Z,18.10
2022-10-22T06:43:48.206Z,18.83
2022-10-22T06:46:20.743Z,19.08
2022-10-22T06:48:52.200Z,22.65
2022-10-22T06:51:19.578Z,20.52
2022-10-22T06:53:46.666Z,21.20
2022-10-22T06:56:16.418Z,20.50
2022-10-22T06:58:43.301Z,21.95
2022-10-22T07:01:14.684Z,21.38
2022-10-22T07:03:42.365Z,19.60
2022-10-22T07:06:12.789Z,20.42
2022-10-22T07:08:41.386Z,18.77
2022-10-22T07:11:10.769Z,18.25
2022-10-22T07:13:37.756Z,17.50
2022-10-22T07:16:06.115Z,18.00
2022-10-22T07:18:33.961Z,18.17
2022-10-22T07:21:00.817Z,17.70
2022-10-22T07:23:28.786Z,18.17
2022-10-22T07:28:23.917Z,17.73
2022-10-22T07:30:51.143Z,17.50
2022-10-22T07:33:17.940Z,17.37
2022-10-22T07:35:44.816Z,18.40
2022-10-22T07:38:11.631Z,19.10
2022-10-22T07:40:38.485Z,16.67
2022-10-22T07:43:05.349Z,17.38
2022-10-22T07:45:32.057Z,16.47
2022-10-22T07:48:00.568Z,16.90
2022-10-22T07:50:27.702Z,18.05
2022-10-22T07:52:56.117Z,16.40
2022-10-22T07:55:24.856Z,17.67
2022-10-22T07:57:51.704Z,16.67
2022-10-22T08:00:20.602Z,16.73
2022-10-22T08:02:49.941Z,18.13
2022-10-22T08:05:17.061Z,18.77
2022-10-22T08:07:44.165Z,18.15
2022-10-22T08:10:11.969Z,18.17
2022-10-22T08:12:39.451Z,18.27
2022-10-22T08:15:07.039Z,18.38
2022-10-22T08:17:33.860Z,19.08
2022-10-22T08:20:00.567Z,18.60
2022-10-22T08:22:27.708Z,17.73
2022-10-22T08:24:54.544Z,17.67
2022-10-22T08:27:21.939Z,18.48
2022-10-22T08:29:48.691Z,17.60
2022-10-22T08:32:15.440Z,18.58
2022-10-22T08:34:42.241Z,17.33
2022-10-22T08:37:10.529Z,18.17
2022-10-22T08:39:37.222Z,18.65
2022-10-22T08:42:35.576Z,18.67
2022-10-22T08:45:11.361Z,17.48
2022-10-22T08:48:03.968Z,18.40
2022-10-22T08:50:43.959Z,17.50
2022-10-22T08:53:17.423Z,18.30
2022-10-22T08:55:45.034Z,18.13
2022-10-22T08:58:25.852Z,17.80
2022-10-22T09:01:00.772Z,15.93
2022-10-22T09:03:27.803Z,17.13
2022-10-22T09:06:15.050Z,16.77
2022-10-22T09:08:43.869Z,16.08
2022-10-22T09:11:13.463Z,17.00
2022-10-22T09:13:42.625Z,17.60
2022-10-22T09:16:34.228Z,17.92
2022-10-22T09:19:12.118Z,15.77
2022-10-22T09:21:45.772Z,16.45
2022-10-22T09:24:21.193Z,17.08
2022-10-22T09:26:48.018Z,17.13
2022-10-22T09:29:23.223Z,16.88
2022-10-22T09:31:50.525Z,16.98
2022-10-22T09:34:21.750Z,17.52
2022-10-22T09:36:56.985Z,17.17
2022-10-22T09:39:31.756Z,16.07
2022-10-22T09:41:58.449Z,14.75
2022-10-22T09:44:25.211Z,13.48
2022-10-22T09:46:52.358Z,13.23
2022-10-22T09:49:22.768Z,13.40
2022-10-22T09:52:00.417Z,14.17
2022-10-22T09:54:33.247Z,14.63
2022-10-22T09:57:10.400Z,15.88
2022-10-22T09:59:38.884Z,16.10
2022-10-22T10:02:20.031Z,11.77
2022-10-22T10:04:57.548Z,11.00
2022-10-22T10:07:27.044Z,12.40
2022-10-22T10:09:54.749Z,12.10
2022-10-22T10:12:52.311Z,10.52
2022-10-22T10:15:34.016Z,13.15
2022-10-22T10:18:18.912Z,14.10
2022-10-22T10:20:50.054Z,14.32
2022-10-22T10:23:31.147Z,15.30
2022-10-22T10:26:20.298Z,12.82
2022-10-22T10:28:58.143Z,12.65
2022-10-22T10:31:55.532Z,12.87
2022-10-22T10:34:29.602Z,11.38
2022-10-22T10:37:21.371Z,11.05
2022-10-22T10:40:03.325Z,12.02
2022-10-22T10:42:54.594Z,11.27
2022-10-22T10:45:27.688Z,11.23
2022-10-22T10:48:28.488Z,6.20
2022-10-22T10:51:31.813Z,2.80
2022-10-22T10:54:05.273Z,2.72
2022-10-22T10:56:53.084Z,1.83
2022-10-22T10:59:25.803Z,1.80
2022-10-22T11:02:10.972Z,22.17
2022-10-22T11:05:13.128Z,3.65
2022-10-22T11:07:53.447Z,1.85
2022-10-22T11:10:22.431Z,1.77
2022-10-22T11:12:53.045Z,1.70
2022-10-22T11:15:49.542Z,1.70
2022-10-22T11:18:24.115Z,1.90
2022-10-22T11:21:18.686Z,1.50
2022-10-22T11:23:51.326Z,1.70
2022-10-22T11:26:38.996Z,1.27
2022-10-22T11:29:11.343Z,1.15
2022-10-22T11:31:39.072Z,1.10
2022-10-22T11:34:34.321Z,1.17
2022-10-22T11:37:03.914Z,1.30
2022-10-22T11:39:33.948Z,1.60
2022-10-22T11:42:06.056Z,1.70
2022-10-22T11:44:46.036Z,1.60
2022-10-22T11:47:20.260Z,1.20
2022-10-22T11:49:58.168Z,1.48
2022-10-22T11:52:33.084Z,1.33
2022-10-22T11:55:23.280Z,1.23
2022-10-22T11:57:50.098Z,1.20
2022-10-22T12:00:40.352Z,1.70
2022-10-22T12:03:18.988Z,1.42
2022-10-22T12:05:46.469Z,1.57
2022-10-22T12:08:20.719Z,2.13
2022-10-22T12:11:12.167Z,1.80
2022-10-22T12:14:19.917Z,2.20
2022-10-22T12:16:57.345Z,1.55
2022-10-22T12:19:26.745Z,4.00
2022-10-22T12:21:57.828Z,4.53
2022-10-22T12:24:26.182Z,4.88
2022-10-22T12:26:53.108Z,4.00
2022-10-22T12:29:26.710Z,2.63
2022-10-22T12:31:54.984Z,2.60
2022-10-22T12:34:24.242Z,2.80
2022-10-22T12:36:53.052Z,2.03
2022-10-22T12:39:26.823Z,2.95
2022-10-22T12:41:54.846Z,2.25
2022-10-22T12:44:21.758Z,2.57
2022-10-22T12:46:52.980Z,2.30
2022-10-22T12:49:29.385Z,2.03
2022-10-22T12:52:00.285Z,2.20
2022-10-22T12:54:32.108Z,2.03
2022-10-22T12:56:58.964Z,1.90
2022-10-22T12:59:29.247Z,2.42
2022-10-22T13:01:56.496Z,2.60
2022-10-22T13:04:26.655Z,2.63
2022-10-22T13:07:04.695Z,2.38
2022-10-22T13:09:57.388Z,2.70
2022-10-22T13:12:34.870Z,3.03
2022-10-22T13:15:20.062Z,2.20
2022-10-22T13:17:47.749Z,3.90
2022-10-22T13:20:23.432Z,9.50
2022-10-22T13:23:02.709Z,5.73
2022-10-22T13:25:31.566Z,2.70
2022-10-22T13:28:01.460Z,2.88
2022-10-22T13:30:33.598Z,2.47
2022-10-22T13:33:00.331Z,2.85
2022-10-22T13:35:32.139Z,3.17
2022-10-22T13:38:00.009Z,3.28
2022-10-22T13:40:27.619Z,3.63
2022-10-22T13:42:54.686Z,4.05
2022-10-22T13:45:21.396Z,5.78
2022-10-22T13:47:53.583Z,4.40
2022-10-22T13:50:21.293Z,4.25
2022-10-22T13:52:55.747Z,3.65
2022-10-22T13:55:29.142Z,3.20
2022-10-22T13:58:06.597Z,3.80
2022-10-22T14:00:33.372Z,3.10
2022-10-22T14:03:00.436Z,2.97
2022-10-22T14:05:27.480Z,2.65
2022-10-22T14:07:54.260Z,2.50
2022-10-22T14:10:23.416Z,2.70
2022-10-22T14:12:53.561Z,3.30
2022-10-22T14:15:24.121Z,3.88
2022-10-22T14:17:57.531Z,3.97
2022-10-22T14:20:31.071Z,3.28
2022-10-22T14:23:05.631Z,3.60
2022-10-22T14:25:32.596Z,4.10
2022-10-22T14:27:59.302Z,3.55
2022-10-22T14:30:26.766Z,3.67
2022-10-22T14:32:53.701Z,3.33
2022-10-22T14:35:24.216Z,3.60
2022-10-22T14:37:51.344Z,3.30
2022-10-22T14:40:20.800Z,3.55
2022-10-22T14:42:49.215Z,3.70
2022-10-22T14:45:23.206Z,3.70
2022-10-22T14:47:51.104Z,3.53
2022-10-22T14:50:18.925Z,3.03
2022-10-22T14:52:45.784Z,3.55
2022-10-22T14:55:15.179Z,4.50
2022-10-22T14:57:42.931Z,4.07
2022-10-22T15:00:13.480Z,3.92
2022-10-22T15:02:40.619Z,3.60
2022-10-22T15:05:08.122Z,3.97
2022-10-22T15:07:35.289Z,3.65
2022-10-22T15:10:02.248Z,3.42
2022-10-22T15:12:29.026Z,4.32
2022-10-22T15:14:55.754Z,4.17
2022-10-22T15:17:22.685Z,3.90
2022-10-22T15:19:49.492Z,4.72
2022-10-22T15:22:16.602Z,3.90
2022-10-22T15:24:46.487Z,4.35
2022-10-22T15:27:13.905Z,4.40
2022-10-22T15:29:42.048Z,4.57
2022-10-22T15:32:11.820Z,4.35
2022-10-22T15:34:39.957Z,4.63
2022-10-22T15:37:10.312Z,5.70
2022-10-22T15:39:40.681Z,5.53
2022-10-22T15:42:07.641Z,4.07
2022-10-22T15:44:34.608Z,4.68
2022-10-22T15:47:03.532Z,4.28
2022-10-22T15:49:30.453Z,4.68
2022-10-22T15:51:57.177Z,3.53
2022-10-22T15:54:28.546Z,4.07
2022-10-22T15:56:56.626Z,4.40
2022-10-22T15:59:23.724Z,5.05
2022-10-22T16:01:51.340Z,5.18
2022-10-22T16:04:18.141Z,5.03
2022-10-22T16:06:49.821Z,5.22
2022-10-22T16:09:20.694Z,5.95
2022-10-22T16:11:48.432Z,5.68
2022-10-22T16:14:18.730Z,9.45
2022-10-22T16:16:50.393Z,9.43
2022-10-22T16:19:19.620Z,8.10
2022-10-22T16:21:50.419Z,7.97
2022-10-22T16:24:17.925Z,7.82
2022-10-22T16:26:45.240Z,7.70
2022-10-22T16:29:12.734Z,7.30
2022-10-22T16:31:41.427Z,6.22
2022-10-22T16:34:08.997Z,5.32
2022-10-22T16:36:37.174Z,5.05
2022-10-22T16:39:04.991Z,5.10
2022-10-22T16:41:37.821Z,6.80
2022-10-22T16:44:08.075Z,10.43
2022-10-22T16:46:38.747Z,6.80
2022-10-22T16:49:06.876Z,5.18
2022-10-22T16:51:34.853Z,3.90
2022-10-22T16:54:02.413Z,2.53
2022-10-22T16:56:31.778Z,2.38
2022-10-22T16:58:58.564Z,2.15
2022-10-22T17:01:29.154Z,1.80
2022-10-22T17:03:58.650Z,1.70
2022-10-22T17:06:25.497Z,2.40
2022-10-22T17:08:52.694Z,2.13
2022-10-22T17:11:22.165Z,3.03
2022-10-22T17:13:52.577Z,2.10
2022-10-22T17:16:22.275Z,2.25
2022-10-22T17:18:49.328Z,2.30
2022-10-22T17:21:16.830Z,2.85
2022-10-22T17:23:43.782Z,3.20
2022-10-22T17:26:20.839Z,3.03
2022-10-22T17:28:48.741Z,3.17
2022-10-22T17:31:17.387Z,3.57
2022-10-22T17:33:44.723Z,4.40
2022-10-22T17:36:13.605Z,4.10
2022-10-22T17:38:41.816Z,4.97
2022-10-22T17:41:12.549Z,5.13
2022-10-22T17:43:41.543Z,4.70
2022-10-22T17:46:11.213Z,2.90
2022-10-22T17:48:37.986Z,3.40
2022-10-22T17:51:09.137Z,3.35
2022-10-22T17:53:38.202Z,2.95
2022-10-22T17:56:10.224Z,2.60
2022-10-22T17:58:37.544Z,2.17
2022-10-22T18:01:05.837Z,1.60
2022-10-22T18:03:33.820Z,1.50
2022-10-22T18:06:10.635Z,1.90
2022-10-22T18:08:37.757Z,4.23
2022-10-22T18:11:19.196Z,4.60
2022-10-22T18:13:49.833Z,3.33
2022-10-22T18:16:17.867Z,2.63
2022-10-22T18:18:53.328Z,3.42
2022-10-22T18:21:21.554Z,4.80
2022-10-22T18:23:48.670Z,4.90
2022-10-22T18:26:17.914Z,4.93
2022-10-22T18:28:46.397Z,5.40
2022-10-22T18:31:17.568Z,8.02
2022-10-22T18:33:44.322Z,7.60
2022-10-22T18:36:13.293Z,7.38
2022-10-22T18:38:40.152Z,7.78
2022-10-22T18:41:09.036Z,8.20
2022-10-22T18:43:36.769Z,5.13
2022-10-22T18:46:07.117Z,4.20
2022-10-22T18:48:35.892Z,3.38
2022-10-22T18:51:08.114Z,3.40
2022-10-22T18:53:36.507Z,3.42
2022-10-22T18:56:07.687Z,3.33
2022-10-22T18:58:45.949Z,3.33
2022-10-22T19:01:14.945Z,8.13
2022-10-22T19:03:41.842Z,13.30
2022-10-22T19:06:08.791Z,15.75
2022-10-22T19:08:37.078Z,17.60
2022-10-22T19:11:10.088Z,16.77
2022-10-22T19:13:37.255Z,19.08
2022-10-22T19:16:05.759Z,18.92
2022-10-22T19:18:32.728Z,19.75
2022-10-22T19:21:01.680Z,14.48
2022-10-22T19:23:30.559Z,9.50
2022-10-22T19:26:10.845Z,6.72
2022-10-22T19:28:39.300Z,3.83
2022-10-22T19:31:08.400Z,2.30
2022-10-22T19:33:36.644Z,1.90
2022-10-22T19:36:07.696Z,2.00
2022-10-22T19:38:35.672Z,1.65
2022-10-22T19:41:02.405Z,3.72
2022-10-22T19:43:29.257Z,3.60
2022-10-22T19:45:56.191Z,3.28
2022-10-22T19:48:22.943Z,1.80
2022-10-22T19:50:51.016Z,1.90
2022-10-22T19:53:17.841Z,1.92
2022-10-22T19:55:45.403Z,2.33
2022-10-22T19:58:13.108Z,2.22
2022-10-22T20:00:39.913Z,2.10
2022-10-22T20:03:06.709Z,1.92
2022-10-22T20:05:34.100Z,1.77
2022-10-22T20:08:00.918Z,2.10
2022-10-22T20:10:27.833Z,2.00
2022-10-22T20:12:54.662Z,2.27
2022-10-22T20:15:21.604Z,2.45
2022-10-22T20:17:48.545Z,3.47
2022-10-22T20:20:15.389Z,3.45
2022-10-22T20:22:43.359Z,3.28
2022-10-22T20:25:12.115Z,4.30
2022-10-22T20:27:39.336Z,4.15
2022-10-22T20:30:06.804Z,4.13
2022-10-22T20:32:37.349Z,4.55
2022-10-22T20:35:06.353Z,5.00
2022-10-22T20:37:33.820Z,4.90
2022-10-22T20:40:00.616Z,4.88
2022-10-22T20:42:27.326Z,4.85
2022-10-22T20:44:54.035Z,4.80
2022-10-22T20:47:20.763Z,4.75
2022-10-22T20:49:47.562Z,4.50
2022-10-22T20:52:14.309Z,4.30
2022-10-22T20:54:44.084Z,5.47
2022-10-22T20:57:12.088Z,7.15
2022-10-22T20:59:39.100Z,6.50
2022-10-22T21:02:08.460Z,5.00
2022-10-22T21:04:35.267Z,4.40
2022-10-22T21:07:02.024Z,4.35
2022-10-22T21:09:28.788Z,4.53
2022-10-22T21:11:55.587Z,5.07
2022-10-22T21:14:23.377Z,8.73
2022-10-22T21:16:51.209Z,6.38
2022-10-22T21:19:19.565Z,5.65
2022-10-22T21:21:46.351Z,5.13
2022-10-22T21:24:13.210Z,6.30
2022-10-22T21:26:43.626Z,6.73
2022-10-22T21:29:12.163Z,6.30
2022-10-22T21:31:40.357Z,5.72
2022-10-22T21:34:07.307Z,4.38
2022-10-22T21:36:34.287Z,3.72
2022-10-22T21:39:01.452Z,7.27
2022-10-22T21:41:28.307Z,5.00
2022-10-22T21:43:54.987Z,3.50
2022-10-22T21:46:24.899Z,3.55
2022-10-22T21:48:56.543Z,4.65
2022-10-22T21:51:25.303Z,4.80
2022-10-22T21:56:26.526Z,4.57
2022-10-22T21:58:53.985Z,3.13
2022-10-22T22:01:20.916Z,3.67
2022-10-22T22:03:52.460Z,3.77
2022-10-22T22:06:22.260Z,3.63
2022-10-22T22:08:51.046Z,5.45
2022-10-22T22:11:20.732Z,4.63
2022-10-22T22:13:48.806Z,4.20
2022-10-22T22:16:22.446Z,5.50
2022-10-22T22:18:52.393Z,4.45
2022-10-22T22:21:20.989Z,3.40
2022-10-22T22:23:49.890Z,3.53
2022-10-22T22:26:21.353Z,3.17
2022-10-22T22:28:49.703Z,4.10
2022-10-22T22:31:23.911Z,4.00
2022-10-22T22:33:51.971Z,5.05
2022-10-22T22:36:18.825Z,3.40
2022-10-22T22:38:45.558Z,4.10
2022-10-22T22:41:12.256Z,3.70
2022-10-22T22:43:39.050Z,3.28
2022-10-22T22:46:12.484Z,2.80
2022-10-22T22:48:39.300Z,2.92
2022-10-22T22:51:06.728Z,2.47
2022-10-22T22:53:34.851Z,2.60
2022-10-22T22:56:17.077Z,3.05
2022-10-22T22:58:44.846Z,3.35
2022-10-22T23:01:45.391Z,3.30
2022-10-22T23:04:16.284Z,4.00
2022-10-22T23:06:43.180Z,4.47
2022-10-22T23:09:12.636Z,3.60
2022-10-22T23:11:40.849Z,3.30
2022-10-22T23:14:10.270Z,3.60
2022-10-22T23:16:40.235Z,4.13
2022-10-22T23:19:07.530Z,4.83
2022-10-22T23:21:37.794Z,5.18
2022-10-22T23:24:11.167Z,5.30
2022-10-22T23:26:44.476Z,5.47
2022-10-22T23:29:14.668Z,5.80
2022-10-22T23:31:42.623Z,6.73
2022-10-22T23:34:11.605Z,6.47
2022-10-22T23:36:39.295Z,6.70
2022-10-22T23:39:10.189Z,6.20
2022-10-22T23:41:37.806Z,5.97
2022-10-22T23:44:05.608Z,5.53
2022-10-22T23:46:33.471Z,6.18
2022-10-22T23:49:00.874Z,5.40
2022-10-22T23:51:28.306Z,4.80
2022-10-22T23:53:58.072Z,4.50
2022-10-22T23:56:25.487Z,4.87
2022-10-22T23:58:53.091Z,3.33
